createdAt,value
2023-10-14T00:02:16.378Z,80
2023-10-14T00:04:46.963Z,84
2023-10-14T00:07:17.261Z,76
2023-10-14T00:09:47.725Z,77
2023-10-14T00:12:18.245Z,81
2023-10-14T00:14:52.350Z,76
2023-10-14T00:17:23.070Z,76
2023-10-14T00:19:53.705Z,82
2023-10-14T00:22:24.683Z,80
2023-10-14T00:24:54.267Z,82
2023-10-14T00:27:27.933Z,80
2023-10-14T00:29:58.879Z,80
2023-10-14T00:32:30.028Z,80
2023-10-14T00:35:01.329Z,81
2023-10-14T00:37:32.308Z,80
2023-10-14T00:40:03.265Z,84
2023-10-14T00:42:34.167Z,83
2023-10-14T00:45:04.764Z,79
2023-10-14T00:47:35.004Z,80
2023-10-14T00:50:06.214Z,80
2023-10-14T00:52:36.576Z,80
2023-10-14T00:55:07.890Z,82
2023-10-14T00:57:38.209Z,83
2023-10-14T01:00:09.483Z,79
2023-10-14T01:02:40.153Z,80
2023-10-14T01:05:10.630Z,79
2023-10-14T01:07:42.028Z,79
2023-10-14T01:10:13.331Z,76
2023-10-14T01:12:44.507Z,76
2023-10-14T01:15:15.635Z,76
2023-10-14T01:17:46.808Z,76
2023-10-14T01:20:17.689Z,80
2023-10-14T01:22:48.793Z,80
2023-10-14T01:25:19.706Z,76
2023-10-14T01:27:50.104Z,76
2023-10-14T01:30:21.167Z,75
2023-10-14T01:32:52.216Z,74
2023-10-14T01:35:22.250Z,73
2023-10-14T01:37:53.094Z,75
2023-10-14T01:40:23.873Z,74
2023-10-14T01:42:55.301Z,75
2023-10-14T01:45:26.207Z,68
2023-10-14T01:47:57.217Z,68
2023-10-14T01:50:27.978Z,74
2023-10-14T01:52:58.661Z,68
2023-10-14T01:55:29.222Z,69
2023-10-14T01:58:00.217Z,75
2023-10-14T02:00:30.270Z,70
2023-10-14T02:03:01.125Z,72
2023-10-14T02:05:32.361Z,68
2023-10-14T02:08:03.522Z,68
2023-10-14T02:10:34.808Z,64
2023-10-14T02:13:06.265Z,64
2023-10-14T02:15:37.394Z,67
2023-10-14T02:18:06.594Z,65
2023-10-14T02:20:37.336Z,70
2023-10-14T02:23:08.563Z,66
2023-10-14T02:25:39.775Z,69
2023-10-14T02:28:10.384Z,65
2023-10-14T02:30:41.097Z,73
2023-10-14T02:33:12.020Z,73
2023-10-14T02:35:43.209Z,64
2023-10-14T02:38:13.694Z,62
2023-10-14T02:40:44.942Z,60
2023-10-14T02:43:15.503Z,60
2023-10-14T02:45:46.210Z,62
2023-10-14T02:48:16.905Z,64
2023-10-14T02:50:47.439Z,64
2023-10-14T02:53:18.061Z,61
2023-10-14T02:55:48.567Z,60
2023-10-14T02:58:19.236Z,60
2023-10-14T03:00:50.035Z,63
2023-10-14T03:03:21.322Z,60
2023-10-14T03:05:52.382Z,63
2023-10-14T03:08:23.411Z,64
2023-10-14T03:10:53.856Z,63
2023-10-14T03:13:24.552Z,64
2023-10-14T03:15:55.331Z,63
2023-10-14T03:18:25.895Z,65
2023-10-14T03:20:56.567Z,61
2023-10-14T03:23:27.079Z,63
2023-10-14T03:25:57.665Z,63
2023-10-14T03:28:28.510Z,68
2023-10-14T03:30:59.741Z,61
2023-10-14T03:33:30.150Z,59
2023-10-14T03:36:00.993Z,61
2023-10-14T03:38:32.147Z,60
2023-10-14T03:41:03.599Z,56
2023-10-14T03:43:35.090Z,60
2023-10-14T03:46:06.286Z,62
2023-10-14T03:48:37.017Z,64
2023-10-14T03:51:08.807Z,60
2023-10-14T03:53:39.191Z,64
2023-10-14T03:56:09.810Z,57
2023-10-14T03:58:40.827Z,59
2023-10-14T04:01:11.576Z,57
2023-10-14T04:03:42.165Z,56
2023-10-14T04:06:12.936Z,56
2023-10-14T04:08:43.915Z,56
2023-10-14T04:11:14.329Z,56
2023-10-14T04:13:44.884Z,59
2023-10-14T04:16:16.376Z,53
2023-10-14T04:18:47.371Z,58
2023-10-14T04:21:17.538Z,61
2023-10-14T04:23:48.644Z,64
2023-10-14T04:26:20.125Z,66
2023-10-14T04:28:51.515Z,72
2023-10-14T04:31:22.601Z,80
2023-10-14T04:33:52.996Z,86
2023-10-14T04:36:23.541Z,89
2023-10-14T04:38:54.710Z,89
2023-10-14T04:41:25.763Z,87
2023-10-14T04:43:56.614Z,84
2023-10-14T04:46:27.076Z,83
2023-10-14T04:48:58.080Z,90
2023-10-14T04:51:29.037Z,86
2023-10-14T04:53:59.236Z,84
2023-10-14T04:56:31.289Z,87
2023-10-14T04:59:01.668Z,80
2023-10-14T05:01:32.548Z,84
2023-10-14T05:04:03.056Z,87
2023-10-14T05:06:33.732Z,92
2023-10-14T05:09:04.276Z,86
2023-10-14T05:11:34.921Z,95
2023-10-14T05:14:06.395Z,91
2023-10-14T05:16:36.924Z,82
2023-10-14T05:19:07.612Z,92
2023-10-14T05:21:38.211Z,102
2023-10-14T05:24:09.213Z,95
2023-10-14T05:26:39.771Z,85
2023-10-14T05:29:11.038Z,105
2023-10-14T05:31:41.413Z,87
2023-10-14T05:34:12.172Z,93
2023-10-14T05:36:42.699Z,90
2023-10-14T05:39:13.714Z,87
2023-10-14T05:41:44.819Z,90
2023-10-14T05:44:15.829Z,88
2023-10-14T05:46:47.466Z,97
2023-10-14T05:49:18.605Z,88
2023-10-14T05:51:49.673Z,83
2023-10-14T05:54:20.223Z,85
2023-10-14T05:56:50.405Z,84
2023-10-14T05:59:21.529Z,89
2023-10-14T06:01:51.773Z,85
2023-10-14T06:04:20.937Z,91
2023-10-14T06:06:51.398Z,94
2023-10-14T06:09:23.154Z,98
2023-10-14T06:11:53.933Z,96
2023-10-14T06:14:25.941Z,93
2023-10-14T06:16:57.437Z,99
2023-10-14T06:19:28.683Z,103
2023-10-14T06:21:59.456Z,97
2023-10-14T06:24:29.775Z,96
2023-10-14T06:27:00.256Z,96
2023-10-14T06:29:30.887Z,98
2023-10-14T06:32:13.009Z,99
2023-10-14T06:34:31.798Z,103
2023-10-14T06:37:02.656Z,99
2023-10-14T06:39:33.191Z,107
2023-10-14T06:42:03.961Z,100
2023-10-14T06:44:34.521Z,99
2023-10-14T06:47:05.015Z,97
2023-10-14T06:49:35.792Z,101
2023-10-14T06:52:06.781Z,103
2023-10-14T06:54:37.100Z,92
2023-10-14T06:57:07.847Z,95
2023-10-14T06:59:38.999Z,93
2023-10-14T07:02:08.914Z,107
2023-10-14T07:04:40.544Z,88
2023-10-14T07:07:12.709Z,89
2023-10-14T07:09:41.943Z,80
2023-10-14T07:12:12.668Z,82
2023-10-14T07:14:43.945Z,80
2023-10-14T07:17:13.007Z,86
2023-10-14T07:19:43.714Z,89
2023-10-14T07:22:14.866Z,82
2023-10-14T07:24:45.822Z,100
2023-10-14T07:27:16.529Z,119
2023-10-14T07:29:47.639Z,118
2023-10-14T07:32:18.346Z,165
2023-10-14T07:34:49.815Z,86
2023-10-14T07:37:20.884Z,101
2023-10-14T07:39:51.385Z,83
2023-10-14T07:42:22.610Z,84
2023-10-14T07:44:53.791Z,78
2023-10-14T07:47:24.452Z,85
2023-10-14T07:49:55.365Z,88
2023-10-14T07:52:26.182Z,66
2023-10-14T07:54:57.064Z,59
2023-10-14T07:57:27.998Z,59
2023-10-14T07:59:58.489Z,60
2023-10-14T08:02:27.741Z,80
2023-10-14T08:04:58.668Z,85
2023-10-14T08:07:30.256Z,74
2023-10-14T08:10:01.022Z,73
2023-10-14T08:12:30.336Z,60
2023-10-14T08:15:01.830Z,59
2023-10-14T08:17:32.063Z,57
2023-10-14T08:20:02.657Z,56
2023-10-14T08:22:33.216Z,55
2023-10-14T08:25:04.376Z,55
2023-10-14T08:27:34.954Z,55
2023-10-14T08:30:05.461Z,56
2023-10-14T08:32:34.497Z,52
2023-10-14T08:35:05.376Z,52
2023-10-14T08:37:36.393Z,48
2023-10-14T08:40:07.068Z,49
2023-10-14T08:42:37.522Z,48
2023-10-14T08:45:08.617Z,60
2023-10-14T08:47:40.358Z,48
2023-10-14T08:50:10.817Z,52
2023-10-14T08:52:41.812Z,44
2023-10-14T08:55:13.141Z,52
2023-10-14T08:57:43.346Z,53
2023-10-14T09:00:13.913Z,48
2023-10-14T09:02:44.268Z,56
2023-10-14T09:05:14.991Z,56
2023-10-14T09:07:45.710Z,50
2023-10-14T09:10:16.674Z,48
2023-10-14T09:12:47.483Z,56
2023-10-14T09:15:18.551Z,51
2023-10-14T09:17:49.052Z,48
2023-10-14T09:20:19.560Z,39
2023-10-14T09:22:50.417Z,43
2023-10-14T09:25:21.720Z,44
2023-10-14T09:27:52.703Z,44
2023-10-14T09:30:23.412Z,39
2023-10-14T09:32:54.690Z,44
2023-10-14T09:35:25.740Z,43
2023-10-14T09:37:56.693Z,40
2023-10-14T09:40:27.326Z,40
2023-10-14T09:42:59.417Z,35
2023-10-14T09:45:29.965Z,39
2023-10-14T09:48:00.539Z,36
2023-10-14T09:50:35.944Z,33
2023-10-14T09:53:09.717Z,26
2023-10-14T09:55:40.299Z,31
2023-10-14T09:58:10.910Z,32
2023-10-14T10:00:41.484Z,33
2023-10-14T10:03:12.119Z,31
2023-10-14T10:05:42.923Z,32
2023-10-14T10:08:13.422Z,29
2023-10-14T10:10:44.244Z,36
2023-10-14T10:13:13.483Z,30
2023-10-14T10:15:43.849Z,32
2023-10-14T10:18:14.649Z,27
2023-10-14T10:20:44.865Z,32
2023-10-14T10:23:15.614Z,34
2023-10-14T10:25:46.298Z,33
2023-10-14T10:28:17.209Z,31
2023-10-14T10:30:49.187Z,35
2023-10-14T10:33:19.722Z,32
2023-10-14T10:35:50.758Z,30
2023-10-14T10:38:21.482Z,32
2023-10-14T10:40:52.437Z,26
2023-10-14T10:43:23.421Z,30
2023-10-14T10:45:54.409Z,28
2023-10-14T10:48:25.119Z,32
2023-10-14T10:50:55.837Z,36
2023-10-14T10:53:27.371Z,42
2023-10-14T10:55:58.272Z,32
2023-10-14T10:58:28.693Z,35
2023-10-14T11:00:59.197Z,34
2023-10-14T11:03:29.929Z,29
2023-10-14T11:06:01.198Z,41
2023-10-14T11:08:31.981Z,40
2023-10-14T11:11:02.944Z,35
2023-10-14T11:13:33.989Z,45
2023-10-14T11:16:04.982Z,40
2023-10-14T11:18:39.198Z,31
2023-10-14T11:21:06.774Z,40
2023-10-14T11:23:37.829Z,22
2023-10-14T11:26:08.657Z,44
2023-10-14T11:28:39.596Z,35
2023-10-14T11:31:11.002Z,38
2023-10-14T11:33:42.229Z,32
2023-10-14T11:36:13.178Z,28
2023-10-14T11:38:44.270Z,26
2023-10-14T11:41:15.385Z,24
2023-10-14T11:43:45.921Z,24
2023-10-14T11:46:16.457Z,21
2023-10-14T11:48:46.981Z,25
2023-10-14T11:51:17.674Z,31
2023-10-14T11:53:48.415Z,28
2023-10-14T11:56:19.528Z,28
2023-10-14T11:58:51.119Z,46
2023-10-14T12:01:21.789Z,27
2023-10-14T12:03:52.887Z,26
2023-10-14T12:06:24.162Z,20
2023-10-14T12:08:55.197Z,22
2023-10-14T12:11:25.826Z,26
2023-10-14T12:13:56.270Z,24
2023-10-14T12:16:26.813Z,23
2023-10-14T12:18:57.269Z,31
2023-10-14T12:21:28.464Z,23
2023-10-14T12:23:59.629Z,26
2023-10-14T12:26:38.530Z,27
2023-10-14T12:29:01.673Z,20
2023-10-14T12:31:32.733Z,24
2023-10-14T12:34:03.668Z,22
2023-10-14T12:36:34.816Z,26
2023-10-14T12:39:05.846Z,26
2023-10-14T12:41:36.873Z,28
2023-10-14T12:44:10.817Z,17
2023-10-14T12:46:41.734Z,26
2023-10-14T12:49:12.898Z,23
2023-10-14T12:51:43.719Z,27
2023-10-14T12:54:14.687Z,35
2023-10-14T12:56:45.421Z,27
2023-10-14T12:59:16.248Z,24
2023-10-14T13:01:46.850Z,31
2023-10-14T13:04:18.575Z,27
2023-10-14T13:06:48.839Z,24
2023-10-14T13:09:19.906Z,25
2023-10-14T13:11:51.046Z,21
2023-10-14T13:14:22.179Z,32
2023-10-14T13:16:53.377Z,24
2023-10-14T13:19:24.220Z,21
2023-10-14T13:21:55.389Z,16
2023-10-14T13:24:26.638Z,25
2023-10-14T13:26:57.563Z,20
2023-10-14T13:29:28.604Z,28
2023-10-14T13:31:59.565Z,25
2023-10-14T13:34:30.458Z,31
2023-10-14T13:37:01.367Z,32
2023-10-14T13:39:32.369Z,34
2023-10-14T13:42:03.459Z,26
2023-10-14T13:44:33.940Z,28
2023-10-14T13:47:04.999Z,23
2023-10-14T13:49:35.891Z,27
2023-10-14T13:52:06.514Z,25
2023-10-14T13:54:37.380Z,30
2023-10-14T13:57:08.745Z,27
2023-10-14T13:59:39.443Z,24
2023-10-14T14:02:10.067Z,21
2023-10-14T14:04:40.968Z,32
2023-10-14T14:07:11.995Z,31
2023-10-14T14:09:42.971Z,30
2023-10-14T14:12:13.926Z,22
2023-10-14T14:14:44.985Z,24
2023-10-14T14:17:16.050Z,23
2023-10-14T14:19:46.643Z,24
2023-10-14T14:22:17.544Z,22
2023-10-14T14:24:48.625Z,26
2023-10-14T14:27:19.479Z,44
2023-10-14T14:29:50.174Z,37
2023-10-14T14:32:20.836Z,32
2023-10-14T14:34:51.727Z,28
2023-10-14T14:37:23.083Z,26
2023-10-14T14:39:54.140Z,26
2023-10-14T14:42:24.944Z,28
2023-10-14T14:44:56.095Z,28
2023-10-14T14:47:27.053Z,28
2023-10-14T14:49:57.895Z,32
2023-10-14T14:52:29.291Z,27
2023-10-14T14:55:00.257Z,26
2023-10-14T14:57:31.527Z,28
2023-10-14T15:00:02.259Z,53
2023-10-14T15:02:33.124Z,42
2023-10-14T15:05:04.085Z,31
2023-10-14T15:07:35.071Z,43
2023-10-14T15:10:06.038Z,28
2023-10-14T15:12:37.108Z,33
2023-10-14T15:15:09.157Z,25
2023-10-14T15:17:38.205Z,54
2023-10-14T15:20:08.510Z,41
2023-10-14T15:22:40.615Z,35
2023-10-14T15:25:09.516Z,35
2023-10-14T15:27:39.944Z,39
2023-10-14T15:30:10.022Z,56
2023-10-14T15:32:40.919Z,57
2023-10-14T15:35:11.535Z,47
2023-10-14T15:37:43.319Z,44
2023-10-14T15:40:11.815Z,48
2023-10-14T15:42:42.374Z,48
2023-10-14T15:45:12.700Z,64
2023-10-14T15:47:43.373Z,48
2023-10-14T15:50:13.840Z,57
2023-10-14T15:52:44.035Z,67
2023-10-14T15:55:13.143Z,48
2023-10-14T15:57:43.946Z,59
2023-10-14T16:00:15.078Z,65
2023-10-14T16:02:45.846Z,76
2023-10-14T16:05:16.676Z,44
2023-10-14T16:07:47.391Z,57
2023-10-14T16:10:18.517Z,45
2023-10-14T16:12:49.402Z,52
2023-10-14T16:15:20.541Z,52
2023-10-14T16:17:49.432Z,34
2023-10-14T16:20:21.202Z,54
2023-10-14T16:22:52.146Z,83
2023-10-14T16:25:23.043Z,58
2023-10-14T16:27:53.728Z,52
2023-10-14T16:30:24.717Z,91
2023-10-14T16:32:55.661Z,60
2023-10-14T16:35:26.519Z,48
2023-10-14T16:37:57.571Z,40
2023-10-14T16:40:28.593Z,44
2023-10-14T16:42:59.776Z,51
2023-10-14T16:45:30.042Z,48
2023-10-14T16:48:01.027Z,48
2023-10-14T16:50:30.199Z,50
2023-10-14T16:53:00.773Z,58
2023-10-14T16:55:31.681Z,59
2023-10-14T16:58:02.182Z,68
2023-10-14T17:00:33.092Z,58
2023-10-14T17:03:03.754Z,58
2023-10-14T17:05:34.278Z,52
2023-10-14T17:08:05.534Z,54
2023-10-14T17:10:34.812Z,69
2023-10-14T17:13:05.226Z,66
2023-10-14T17:15:36.062Z,69
2023-10-14T17:18:06.915Z,68
2023-10-14T17:20:37.943Z,61
2023-10-14T17:23:08.206Z,72
2023-10-14T17:25:38.961Z,62
2023-10-14T17:28:10.033Z,60
2023-10-14T17:30:42.973Z,57
2023-10-14T17:33:14.020Z,60
2023-10-14T17:35:44.836Z,57
2023-10-14T17:38:15.840Z,57
2023-10-14T17:40:46.767Z,60
2023-10-14T17:43:17.648Z,61
2023-10-14T17:45:48.584Z,60
2023-10-14T17:48:19.741Z,64
2023-10-14T17:50:50.488Z,60
2023-10-14T17:53:21.134Z,70
2023-10-14T17:55:51.914Z,63
2023-10-14T17:58:22.761Z,61
2023-10-14T18:00:53.569Z,59
2023-10-14T18:03:24.237Z,64
2023-10-14T18:05:55.202Z,72
2023-10-14T18:08:25.979Z,65
2023-10-14T18:10:56.846Z,75
2023-10-14T18:13:27.578Z,68
2023-10-14T18:15:58.339Z,74
2023-10-14T18:18:29.258Z,68
2023-10-14T18:21:00.067Z,65
2023-10-14T18:23:30.383Z,71
2023-10-14T18:26:00.894Z,72
2023-10-14T18:28:31.517Z,64
2023-10-14T18:31:02.622Z,71
2023-10-14T18:33:33.572Z,64
2023-10-14T18:36:04.409Z,69
2023-10-14T18:38:35.334Z,57
2023-10-14T18:41:06.488Z,63
2023-10-14T18:43:37.417Z,67
2023-10-14T18:46:08.536Z,67
2023-10-14T18:48:39.516Z,59
2023-10-14T18:51:10.342Z,63
2023-10-14T18:53:41.054Z,61
2023-10-14T18:56:12.002Z,62
2023-10-14T18:58:42.864Z,68
2023-10-14T19:01:13.670Z,66
2023-10-14T19:03:44.539Z,60
2023-10-14T19:06:15.564Z,60
2023-10-14T19:08:46.261Z,63
2023-10-14T19:11:15.040Z,68
2023-10-14T19:13:45.869Z,60
2023-10-14T19:16:16.679Z,66
2023-10-14T19:18:47.381Z,64
2023-10-14T19:21:18.049Z,64
2023-10-14T19:23:48.301Z,65
2023-10-14T19:26:19.200Z,72
2023-10-14T19:28:50.057Z,68
2023-10-14T19:31:20.740Z,63
2023-10-14T19:33:51.425Z,65
2023-10-14T19:36:22.086Z,67
2023-10-14T19:38:53.719Z,59
2023-10-14T19:41:24.800Z,55
2023-10-14T19:43:55.652Z,57
2023-10-14T19:46:26.315Z,54
2023-10-14T19:48:57.021Z,60
2023-10-14T19:51:25.913Z,63
2023-10-14T19:53:56.866Z,52
2023-10-14T19:56:27.783Z,52
2023-10-14T19:58:58.939Z,54
2023-10-14T20:01:29.750Z,55
2023-10-14T20:04:00.422Z,56
2023-10-14T20:06:31.173Z,56
2023-10-14T20:09:01.784Z,61
2023-10-14T20:11:34.285Z,66
2023-10-14T20:14:03.129Z,52
2023-10-14T20:16:33.882Z,56
2023-10-14T20:19:04.447Z,56
2023-10-14T20:21:35.335Z,49
2023-10-14T20:24:06.447Z,60
2023-10-14T20:26:37.307Z,58
2023-10-14T20:29:08.280Z,64
2023-10-14T20:31:39.291Z,56
2023-10-14T20:34:10.294Z,52
2023-10-14T20:36:40.974Z,58
2023-10-14T20:39:12.120Z,63
2023-10-14T20:41:43.187Z,60
2023-10-14T20:44:12.231Z,72
2023-10-14T20:46:41.300Z,80
2023-10-14T20:49:12.048Z,66
2023-10-14T20:51:40.935Z,66
2023-10-14T20:54:11.671Z,60
2023-10-14T20:56:42.817Z,56
2023-10-14T20:59:13.547Z,59
2023-10-14T21:01:42.566Z,56
2023-10-14T21:04:19.705Z,52
2023-10-14T21:06:48.303Z,56
2023-10-14T21:09:19.436Z,52
2023-10-14T21:11:50.704Z,60
2023-10-14T21:14:21.774Z,56
2023-10-14T21:16:52.350Z,56
2023-10-14T21:19:23.715Z,57
2023-10-14T21:21:54.306Z,54
2023-10-14T21:24:25.161Z,56
2023-10-14T21:26:55.852Z,59
2023-10-14T21:29:25.444Z,66
2023-10-14T21:31:57.087Z,56
2023-10-14T21:34:30.860Z,55
2023-10-14T21:37:01.816Z,56
2023-10-14T21:39:32.902Z,56
2023-10-14T21:42:03.515Z,55
2023-10-14T21:44:34.283Z,56
2023-10-14T21:47:05.534Z,61
2023-10-14T21:49:36.406Z,55
2023-10-14T21:52:07.245Z,52
2023-10-14T21:54:37.508Z,56
2023-10-14T21:57:08.659Z,97
2023-10-14T21:59:39.508Z,114
2023-10-14T22:02:10.547Z,107
2023-10-14T22:04:41.580Z,90
2023-10-14T22:07:12.366Z,111
2023-10-14T22:09:43.413Z,92
2023-10-14T22:12:14.332Z,70
2023-10-14T22:14:45.307Z,64
2023-10-14T22:17:15.536Z,64
2023-10-14T22:19:46.245Z,72
2023-10-14T22:22:17.276Z,68
2023-10-14T22:24:48.420Z,72
2023-10-14T22:27:17.560Z,63
2023-10-14T22:29:48.348Z,61
2023-10-14T22:32:19.427Z,60
2023-10-14T22:34:50.248Z,64
2023-10-14T22:37:34.492Z,62
2023-10-14T22:39:51.936Z,60
2023-10-14T22:42:22.065Z,64
2023-10-14T22:44:52.859Z,56
2023-10-14T22:47:23.944Z,56
2023-10-14T22:49:54.436Z,57
2023-10-14T22:52:25.835Z,63
2023-10-14T22:54:56.934Z,64
2023-10-14T22:57:28.405Z,63
2023-10-14T22:59:59.327Z,68
2023-10-14T23:02:30.556Z,61
2023-10-14T23:05:01.865Z,59
2023-10-14T23:07:32.483Z,58
2023-10-14T23:10:03.323Z,55
2023-10-14T23:12:34.692Z,59
2023-10-14T23:15:05.637Z,56
2023-10-14T23:17:37.007Z,54
2023-10-14T23:20:07.368Z,59
2023-10-14T23:22:38.565Z,57
2023-10-14T23:25:09.464Z,59
2023-10-14T23:27:40.591Z,56
2023-10-14T23:30:11.251Z,53
2023-10-14T23:32:42.368Z,53
2023-10-14T23:35:13.334Z,55
2023-10-14T23:37:44.110Z,60
2023-10-14T23:40:16.375Z,56
2023-10-14T23:42:47.624Z,54
2023-10-14T23:45:18.717Z,52
2023-10-14T23:47:50.020Z,51
2023-10-14T23:50:21.215Z,55
2023-10-14T23:52:52.482Z,53
2023-10-14T23:55:23.050Z,58
2023-10-14T23:57:54.364Z,52
